createdAt,value
2019-05-05T00:01:34.441Z,69.85
2019-05-05T00:04:15.926Z,69.70
2019-05-05T00:06:44.530Z,69.73
2019-05-05T00:09:10.865Z,69.80
2019-05-05T00:11:50.205Z,69.47
2019-05-05T00:14:19.563Z,69.68
2019-05-05T00:16:47.964Z,69.27
2019-05-05T00:19:29.491Z,69.51
2019-05-05T00:21:44.586Z,70.06
2019-05-05T00:24:11.707Z,70.05
2019-05-05T00:26:39.183Z,69.92
2019-05-05T00:29:06.716Z,69.95
2019-05-05T00:31:34.884Z,69.33
2019-05-05T00:34:01.754Z,69.77
2019-05-05T00:36:29.195Z,69.83
2019-05-05T00:38:56.681Z,69.84
2019-05-05T00:41:25.354Z,69.43
2019-05-05T00:43:51.712Z,69.15
2019-05-05T00:46:21.142Z,69.49
2019-05-05T00:48:48.628Z,69.61
2019-05-05T00:51:16.089Z,69.41
2019-05-05T00:53:44.892Z,69.17
2019-05-05T00:56:14.298Z,69.11
2019-05-05T00:58:40.146Z,69.49
2019-05-05T01:01:11.179Z,69.34
2019-05-05T01:03:38.615Z,68.85
2019-05-05T01:06:09.522Z,68.46
2019-05-05T01:11:10.946Z,68.08
2019-05-05T01:13:38.727Z,68.42
2019-05-05T01:16:06.176Z,68.76
2019-05-05T01:18:35.171Z,69.37
2019-05-05T01:21:01.126Z,69.27
2019-05-05T01:23:36.420Z,69.07
2019-05-05T01:26:05.074Z,69.78
2019-05-05T01:28:31.483Z,69.55
2019-05-05T01:30:58.977Z,69.77
2019-05-05T01:33:40.169Z,70.30
2019-05-05T01:36:07.651Z,69.85
2019-05-05T01:38:45.067Z,69.82
2019-05-05T01:41:18.213Z,69.83
2019-05-05T01:43:45.782Z,69.97
2019-05-05T01:46:14.324Z,69.72
2019-05-05T01:48:40.852Z,69.39
2019-05-05T01:51:08.305Z,69.64
2019-05-05T01:53:35.746Z,69.90
2019-05-05T01:56:04.882Z,70.09
2019-05-05T01:58:30.742Z,70.17
2019-05-05T02:00:58.199Z,70.43
2019-05-05T02:03:25.639Z,70.65
2019-05-05T02:05:54.585Z,70.80
2019-05-05T02:08:21.474Z,70.37
2019-05-05T02:10:48.929Z,70.43
2019-05-05T02:13:16.374Z,70.47
2019-05-05T02:15:44.562Z,70.59
2019-05-05T02:18:11.381Z,70.59
2019-05-05T02:20:45.089Z,70.59
2019-05-05T02:23:12.062Z,70.58
2019-05-05T02:25:39.505Z,70.60
2019-05-05T02:28:08.183Z,70.40
2019-05-05T02:30:38.160Z,70.00
2019-05-05T02:33:16.459Z,70.28
2019-05-05T02:35:45.929Z,70.28
2019-05-05T02:38:11.434Z,70.47
2019-05-05T02:40:38.898Z,70.10
2019-05-05T02:43:06.346Z,70.42
2019-05-05T02:45:44.235Z,70.37
2019-05-05T02:48:14.878Z,70.72
2019-05-05T02:50:52.455Z,70.72
2019-05-05T02:53:14.210Z,70.88
2019-05-05T02:55:39.469Z,70.79
2019-05-05T02:58:06.923Z,70.72
2019-05-05T03:03:26.767Z,70.53
2019-05-05T03:05:54.302Z,70.22
2019-05-05T03:08:21.758Z,70.29
2019-05-05T03:10:49.360Z,70.51
2019-05-05T03:13:16.831Z,70.50
2019-05-05T03:15:45.059Z,70.29
2019-05-05T03:18:13.437Z,70.12
2019-05-05T03:20:40.069Z,70.50
2019-05-05T03:23:07.511Z,70.09
2019-05-05T03:25:34.950Z,70.00
2019-05-05T03:28:04.328Z,69.72
2019-05-05T03:30:29.984Z,69.68
2019-05-05T03:32:57.445Z,69.58
2019-05-05T03:35:24.915Z,69.56
2019-05-05T03:37:54.356Z,70.17
2019-05-05T03:40:19.895Z,70.10
2019-05-05T03:42:48.781Z,70.07
2019-05-05T03:45:16.307Z,69.86
2019-05-05T03:47:44.138Z,69.65
2019-05-05T03:50:11.356Z,69.41
2019-05-05T03:52:38.807Z,69.29
2019-05-05T03:55:07.058Z,69.44
2019-05-05T03:57:34.548Z,69.34
2019-05-05T04:00:04.182Z,68.91
2019-05-05T04:02:34.066Z,68.81
2019-05-05T04:05:04.030Z,68.67
2019-05-05T04:07:29.939Z,68.65
2019-05-05T04:09:57.399Z,68.91
2019-05-05T04:12:24.861Z,68.68
2019-05-05T04:14:54.434Z,68.47
2019-05-05T04:17:24.453Z,68.35
2019-05-05T04:19:50.630Z,68.23
2019-05-05T04:22:18.058Z,68.21
2019-05-05T04:24:45.525Z,68.42
2019-05-05T04:27:14.655Z,68.38
2019-05-05T04:29:40.533Z,68.31
2019-05-05T04:32:08.067Z,68.82
2019-05-05T04:34:35.515Z,68.71
2019-05-05T04:37:04.115Z,68.81
2019-05-05T04:39:30.449Z,68.60
2019-05-05T04:41:57.980Z,68.33
2019-05-05T04:44:25.448Z,68.33
2019-05-05T04:46:54.584Z,68.43
2019-05-05T04:49:25.891Z,68.35
2019-05-05T04:54:50.420Z,67.78
2019-05-05T04:57:17.907Z,68.10
2019-05-05T04:59:45.371Z,68.01
2019-05-05T05:05:24.560Z,67.21
2019-05-05T05:07:53.812Z,67.51
2019-05-05T05:10:19.516Z,67.58
2019-05-05T05:12:46.963Z,67.81
2019-05-05T05:15:14.745Z,67.99
2019-05-05T05:17:44.314Z,67.94
2019-05-05T05:20:10.541Z,67.89
2019-05-05T05:22:38.092Z,67.43
2019-05-05T05:25:05.586Z,67.07
2019-05-05T05:27:33.581Z,66.69
2019-05-05T05:30:00.532Z,66.08
2019-05-05T05:32:27.987Z,66.02
2019-05-05T05:34:55.445Z,65.80
2019-05-05T05:37:23.978Z,65.59
2019-05-05T05:40:03.950Z,65.63
2019-05-05T05:42:30.691Z,66.25
2019-05-05T05:47:57.066Z,65.92
2019-05-05T05:50:27.160Z,66.18
2019-05-05T05:52:54.612Z,66.59
2019-05-05T05:55:23.775Z,66.57
2019-05-05T05:57:49.679Z,66.45
2019-05-05T06:00:17.254Z,65.81
2019-05-05T06:02:44.782Z,65.34
2019-05-05T06:05:12.238Z,64.40
2019-05-05T06:07:39.761Z,63.73
2019-05-05T06:10:20.570Z,63.44
2019-05-05T06:12:34.777Z,62.90
2019-05-05T06:15:03.485Z,62.54
2019-05-05T06:17:29.265Z,62.23
2019-05-05T06:19:56.706Z,61.64
2019-05-05T06:22:29.392Z,61.21
2019-05-05T06:24:53.954Z,60.86
2019-05-05T06:27:19.407Z,60.71
2019-05-05T06:29:46.850Z,60.06
2019-05-05T06:32:14.730Z,59.31
2019-05-05T06:34:41.804Z,59.27
2019-05-05T06:37:09.284Z,59.20
2019-05-05T06:39:36.733Z,59.09
2019-05-05T06:42:20.040Z,58.95
2019-05-05T06:44:48.340Z,58.87
2019-05-05T06:47:15.811Z,58.77
2019-05-05T06:49:43.870Z,58.51
2019-05-05T06:52:10.788Z,58.47
2019-05-05T06:54:38.539Z,58.08
2019-05-05T06:57:06.005Z,57.18
2019-05-05T06:59:35.008Z,56.80
2019-05-05T07:02:01.062Z,56.39
2019-05-05T07:04:28.063Z,55.52
2019-05-05T07:06:57.188Z,54.80
2019-05-05T07:09:24.474Z,54.01
2019-05-05T07:11:51.021Z,54.20
2019-05-05T07:14:18.507Z,53.53
2019-05-05T07:16:46.022Z,52.67
2019-05-05T07:19:14.672Z,52.18
2019-05-05T07:21:41.112Z,51.67
2019-05-05T07:24:08.593Z,51.09
2019-05-05T07:26:36.036Z,50.58
2019-05-05T07:29:04.593Z,49.92
2019-05-05T07:31:31.232Z,49.58
2019-05-05T07:33:58.790Z,49.46
2019-05-05T07:36:33.899Z,48.59
2019-05-05T07:38:59.441Z,49.07
2019-05-05T07:41:26.450Z,48.56
2019-05-05T07:43:54.272Z,48.43
2019-05-05T07:46:21.473Z,48.25
2019-05-05T07:48:48.923Z,47.79
2019-05-05T07:51:16.567Z,48.06
2019-05-05T07:53:44.448Z,47.35
2019-05-05T07:56:11.637Z,47.47
2019-05-05T07:58:39.121Z,47.16
2019-05-05T08:01:06.619Z,47.08
2019-05-05T08:03:34.110Z,47.08
2019-05-05T08:06:03.805Z,46.68
2019-05-05T08:08:29.067Z,46.40
2019-05-05T08:10:56.531Z,46.58
2019-05-05T08:13:24.392Z,47.30
2019-05-05T08:15:59.100Z,47.66
2019-05-05T08:18:21.895Z,47.95
2019-05-05T08:20:49.882Z,47.87
2019-05-05T08:23:30.239Z,47.88
2019-05-05T08:25:48.486Z,47.76
2019-05-05T08:28:18.408Z,48.00
2019-05-05T08:30:47.071Z,48.03
2019-05-05T08:33:14.507Z,47.23
2019-05-05T08:35:41.964Z,47.44
2019-05-05T08:38:09.409Z,47.42
2019-05-05T08:40:36.866Z,46.31
2019-05-05T08:43:04.565Z,45.35
2019-05-05T08:45:31.438Z,44.95
2019-05-05T08:47:58.901Z,44.62
2019-05-05T08:50:27.110Z,45.02
2019-05-05T08:52:53.876Z,45.27
2019-05-05T08:55:21.456Z,44.89
2019-05-05T08:57:49.119Z,44.38
2019-05-05T09:00:16.640Z,44.12
2019-05-05T09:02:44.138Z,44.02
2019-05-05T09:05:11.624Z,44.32
2019-05-05T09:07:39.076Z,44.59
2019-05-05T09:10:06.606Z,44.72
2019-05-05T09:12:34.059Z,44.36
2019-05-05T09:15:01.519Z,44.92
2019-05-05T09:17:29.430Z,45.25
2019-05-05T09:19:57.061Z,45.44
2019-05-05T09:22:24.681Z,44.89
2019-05-05T09:27:45.773Z,43.13
2019-05-05T09:30:14.260Z,42.89
2019-05-05T09:32:40.970Z,43.02
2019-05-05T09:35:08.481Z,42.84
2019-05-05T09:37:35.962Z,41.79
2019-05-05T09:40:04.487Z,41.78
2019-05-05T09:42:31.086Z,42.08
2019-05-05T09:44:58.602Z,42.02
2019-05-05T09:47:26.063Z,42.27
2019-05-05T09:49:54.979Z,42.75
2019-05-05T09:52:21.011Z,41.90
2019-05-05T09:54:48.453Z,41.72
2019-05-05T09:57:15.941Z,42.40
2019-05-05T09:59:44.175Z,42.56
2019-05-05T10:02:11.015Z,42.42
2019-05-05T10:04:38.503Z,42.88
2019-05-05T10:07:05.959Z,42.88
2019-05-05T10:09:34.510Z,42.25
2019-05-05T10:12:01.179Z,41.60
2019-05-05T10:14:28.764Z,41.27
2019-05-05T10:16:56.204Z,41.05
2019-05-05T10:19:24.329Z,40.88
2019-05-05T10:21:51.179Z,40.78
2019-05-05T10:27:10.835Z,38.50
2019-05-05T10:29:38.309Z,38.98
2019-05-05T10:32:05.878Z,39.14
2019-05-05T10:34:33.555Z,38.98
2019-05-05T10:37:00.882Z,39.20
2019-05-05T10:39:30.880Z,39.35
2019-05-05T10:41:58.322Z,39.09
2019-05-05T10:44:25.829Z,39.11
2019-05-05T10:46:53.942Z,39.59
2019-05-05T10:49:20.790Z,39.62
2019-05-05T10:51:48.235Z,40.01
2019-05-05T10:54:15.682Z,40.09
2019-05-05T10:56:43.147Z,40.20
2019-05-05T10:59:10.623Z,41.14
2019-05-05T11:01:38.084Z,41.31
2019-05-05T11:04:05.085Z,40.97
2019-05-05T11:06:32.215Z,40.77
2019-05-05T11:08:59.382Z,39.74
2019-05-05T11:11:26.845Z,39.43
2019-05-05T11:13:54.372Z,39.38
2019-05-05T11:16:21.782Z,39.40
2019-05-05T11:18:49.260Z,40.00
2019-05-05T11:21:16.715Z,40.42
2019-05-05T11:23:44.816Z,40.19
2019-05-05T11:26:14.081Z,40.28
2019-05-05T11:28:39.459Z,40.17
2019-05-05T11:31:06.946Z,39.85
2019-05-05T11:33:37.022Z,40.13
2019-05-05T11:36:07.551Z,40.28
2019-05-05T11:38:35.039Z,39.42
2019-05-05T11:41:04.781Z,38.82
2019-05-05T11:43:30.111Z,38.46
2019-05-05T11:45:57.688Z,38.55
2019-05-05T11:48:25.138Z,38.82
2019-05-05T11:50:54.022Z,38.97
2019-05-05T11:53:19.177Z,38.43
2019-05-05T11:55:46.180Z,37.72
2019-05-05T11:58:14.396Z,37.39
2019-05-05T12:00:40.204Z,36.99
2019-05-05T12:03:07.212Z,37.07
2019-05-05T12:05:34.217Z,37.31
2019-05-05T12:08:01.242Z,38.02
2019-05-05T12:10:43.938Z,37.46
2019-05-05T12:13:11.272Z,37.14
2019-05-05T12:15:38.356Z,36.58
2019-05-05T12:18:05.373Z,35.92
2019-05-05T12:20:33.707Z,35.19
2019-05-05T12:23:00.316Z,34.76
2019-05-05T12:25:32.962Z,34.26
2019-05-05T12:28:01.434Z,34.69
2019-05-05T12:30:28.430Z,34.52
2019-05-05T12:32:55.493Z,34.98
2019-05-05T12:35:23.562Z,34.86
2019-05-05T12:37:50.438Z,35.08
2019-05-05T12:40:17.513Z,35.94
2019-05-05T12:42:45.138Z,35.94
2019-05-05T12:45:13.778Z,35.31
2019-05-05T12:47:42.116Z,34.02
2019-05-05T12:50:09.246Z,33.71
2019-05-05T12:52:36.324Z,33.79
2019-05-05T12:55:05.105Z,33.54
2019-05-05T12:57:30.584Z,32.85
2019-05-05T12:59:57.619Z,32.87
2019-05-05T13:02:24.779Z,32.85
2019-05-05T13:04:53.464Z,32.57
2019-05-05T13:07:19.115Z,32.45
2019-05-05T13:09:46.571Z,31.29
2019-05-05T13:12:15.137Z,30.72
2019-05-05T13:14:43.888Z,31.16
2019-05-05T13:17:09.636Z,30.98
2019-05-05T13:22:34.984Z,31.00
2019-05-05T13:27:59.932Z,31.22
2019-05-05T13:30:26.960Z,31.65
2019-05-05T13:32:54.540Z,32.09
2019-05-05T13:35:23.434Z,32.22
2019-05-05T13:37:48.558Z,32.12
2019-05-05T13:40:15.559Z,31.61
2019-05-05T13:42:43.993Z,30.98
2019-05-05T13:45:14.401Z,30.39
2019-05-05T13:47:39.989Z,30.33
2019-05-05T13:50:08.451Z,30.09
2019-05-05T13:52:36.017Z,30.37
2019-05-05T13:55:03.510Z,30.11
2019-05-05T13:57:30.969Z,30.20
2019-05-05T13:59:58.420Z,30.66
2019-05-05T14:02:25.877Z,30.81
2019-05-05T14:04:54.190Z,31.22
2019-05-05T14:07:20.975Z,31.49
2019-05-05T14:09:48.439Z,31.26
2019-05-05T14:12:15.918Z,31.42
2019-05-05T14:14:44.074Z,31.37
2019-05-05T14:17:10.854Z,32.85
2019-05-05T14:19:38.443Z,33.87
2019-05-05T14:22:05.980Z,34.75
2019-05-05T14:24:35.988Z,35.03
2019-05-05T14:27:04.510Z,35.40
2019-05-05T14:29:34.626Z,35.89
2019-05-05T14:32:01.703Z,35.41
2019-05-05T14:34:29.164Z,36.11
2019-05-05T14:37:02.043Z,36.68
2019-05-05T14:39:29.597Z,36.12
2019-05-05T14:41:57.229Z,35.24
2019-05-05T14:44:24.772Z,34.69
2019-05-05T14:46:52.240Z,34.02
2019-05-05T14:49:19.689Z,34.36
2019-05-05T14:51:47.165Z,35.36
2019-05-05T14:54:14.990Z,35.57
2019-05-05T14:56:44.037Z,35.96
2019-05-05T14:59:09.763Z,36.28
2019-05-05T15:01:37.220Z,36.46
2019-05-05T15:04:04.785Z,36.75
2019-05-05T15:06:34.446Z,37.05
2019-05-05T15:09:03.775Z,37.24
2019-05-05T15:14:25.935Z,36.19
2019-05-05T15:16:54.317Z,36.84
2019-05-05T15:19:20.980Z,37.58
2019-05-05T15:21:48.949Z,37.34
2019-05-05T15:24:16.174Z,37.07
2019-05-05T15:26:51.902Z,36.90
2019-05-05T15:29:11.118Z,36.94
2019-05-05T15:31:38.566Z,36.32
2019-05-05T15:34:06.082Z,35.91
2019-05-05T15:36:34.638Z,35.20
2019-05-05T15:39:02.087Z,35.04
2019-05-05T15:41:29.586Z,35.08
2019-05-05T15:43:57.215Z,35.36
2019-05-05T15:46:24.787Z,34.73
2019-05-05T15:48:54.426Z,34.42
2019-05-05T15:51:19.788Z,34.26
2019-05-05T15:53:47.226Z,34.37
2019-05-05T15:56:14.792Z,34.49
2019-05-05T15:58:43.520Z,35.89
2019-05-05T16:01:10.099Z,35.41
2019-05-05T16:03:37.556Z,35.40
2019-05-05T16:06:05.045Z,34.87
2019-05-05T16:08:34.006Z,34.52
2019-05-05T16:10:59.997Z,34.67
2019-05-05T16:13:27.470Z,35.08
2019-05-05T16:15:55.780Z,34.43
2019-05-05T16:18:23.871Z,33.99
2019-05-05T16:20:51.357Z,34.03
2019-05-05T16:23:35.630Z,34.43
2019-05-05T16:26:01.147Z,34.01
2019-05-05T16:28:28.629Z,34.27
2019-05-05T16:30:56.344Z,34.20
2019-05-05T16:33:24.195Z,33.61
2019-05-05T16:35:51.203Z,33.96
2019-05-05T16:38:18.667Z,34.63
2019-05-05T16:40:46.117Z,34.49
2019-05-05T16:43:14.120Z,34.11
2019-05-05T16:45:41.183Z,34.67
2019-05-05T16:48:08.691Z,35.46
2019-05-05T16:50:36.833Z,35.96
2019-05-05T16:53:05.130Z,35.88
2019-05-05T16:55:38.151Z,36.46
2019-05-05T16:58:06.746Z,37.05
2019-05-05T17:00:34.516Z,37.42
2019-05-05T17:03:00.580Z,37.41
2019-05-05T17:05:28.014Z,37.34
2019-05-05T17:07:56.413Z,37.12
2019-05-05T17:10:24.409Z,37.05
2019-05-05T17:12:50.627Z,36.71
2019-05-05T17:15:18.869Z,36.53
2019-05-05T17:17:46.347Z,36.34
2019-05-05T17:20:13.956Z,38.85
2019-05-05T17:22:48.485Z,40.81
2019-05-05T17:25:15.980Z,41.91
2019-05-05T17:27:48.521Z,42.85
2019-05-05T17:30:11.371Z,42.92
2019-05-05T17:32:38.984Z,42.58
2019-05-05T17:35:06.474Z,42.61
2019-05-05T17:37:33.989Z,42.91
2019-05-05T17:40:08.524Z,43.19
2019-05-05T17:42:40.759Z,42.90
2019-05-05T17:45:14.092Z,42.14
2019-05-05T17:47:40.009Z,42.03
2019-05-05T17:53:14.895Z,42.05
2019-05-05T17:55:41.013Z,42.10
2019-05-05T17:58:10.428Z,42.69
2019-05-05T18:00:37.964Z,42.62
2019-05-05T18:03:05.570Z,40.27
2019-05-05T18:05:38.627Z,39.43
2019-05-05T18:08:06.127Z,39.36
2019-05-05T18:10:39.618Z,39.49
2019-05-05T18:13:12.046Z,39.36
2019-05-05T18:15:48.014Z,39.45
2019-05-05T18:18:13.916Z,39.74
2019-05-05T18:20:40.290Z,40.00
2019-05-05T18:23:07.819Z,40.46
2019-05-05T18:25:35.259Z,40.86
2019-05-05T18:28:15.364Z,41.31
2019-05-05T18:30:30.228Z,41.55
2019-05-05T18:32:57.750Z,41.88
2019-05-05T18:35:25.561Z,42.39
2019-05-05T18:37:54.423Z,42.54
2019-05-05T18:40:20.577Z,42.64
2019-05-05T18:42:48.139Z,42.88
2019-05-05T18:45:16.190Z,43.29
2019-05-05T18:47:43.659Z,43.53
2019-05-05T18:50:11.135Z,43.77
2019-05-05T18:52:38.580Z,43.94
2019-05-05T18:55:06.073Z,43.95
2019-05-05T18:57:34.188Z,44.14
2019-05-05T19:00:01.164Z,44.32
2019-05-05T19:02:31.211Z,44.25
2019-05-05T19:05:04.770Z,44.78
2019-05-05T19:07:36.118Z,45.62
2019-05-05T19:10:04.000Z,46.32
2019-05-05T19:12:31.114Z,46.68
2019-05-05T19:14:58.595Z,47.24
2019-05-05T19:17:28.573Z,47.71
2019-05-05T19:19:54.914Z,48.17
2019-05-05T19:22:22.070Z,48.31
2019-05-05T19:24:49.522Z,48.68
2019-05-05T19:27:17.052Z,49.10
2019-05-05T19:29:46.327Z,49.41
2019-05-05T19:32:12.206Z,49.63
2019-05-05T19:34:39.662Z,49.70
2019-05-05T19:37:07.098Z,50.10
2019-05-05T19:39:34.580Z,50.28
2019-05-05T19:42:02.050Z,50.26
2019-05-05T19:44:29.669Z,50.00
2019-05-05T19:47:05.673Z,49.75
2019-05-05T19:49:30.119Z,49.36
2019-05-05T19:51:57.575Z,48.94
2019-05-05T19:54:25.135Z,48.50
2019-05-05T19:56:54.263Z,48.25
2019-05-05T19:59:20.482Z,48.28
2019-05-05T20:01:48.069Z,47.95
2019-05-05T20:04:15.531Z,47.73
2019-05-05T20:06:44.199Z,46.77
2019-05-05T20:09:10.635Z,46.68
2019-05-05T20:11:38.105Z,47.15
2019-05-05T20:14:09.985Z,47.46
2019-05-05T20:16:47.674Z,47.88
2019-05-05T20:19:15.122Z,47.77
2019-05-05T20:21:43.913Z,47.20
2019-05-05T20:24:10.189Z,46.77
2019-05-05T20:26:37.705Z,46.61
2019-05-05T20:29:13.898Z,46.68
2019-05-05T20:31:34.591Z,46.66
2019-05-05T20:34:00.514Z,46.81
2019-05-05T20:36:27.963Z,46.78
2019-05-05T20:38:55.818Z,46.88
2019-05-05T20:41:24.908Z,46.86
2019-05-05T20:43:50.787Z,46.93
2019-05-05T20:46:18.252Z,47.43
2019-05-05T20:48:45.711Z,47.92
2019-05-05T20:51:13.792Z,49.01
2019-05-05T20:53:40.755Z,50.08
2019-05-05T20:56:08.215Z,50.35
2019-05-05T20:58:35.810Z,50.45
2019-05-05T21:01:04.517Z,50.55
2019-05-05T21:03:30.755Z,50.71
2019-05-05T21:05:58.210Z,50.82
2019-05-05T21:08:25.903Z,50.98
2019-05-05T21:10:53.772Z,51.08
2019-05-05T21:13:20.944Z,51.33
2019-05-05T21:15:48.501Z,51.54
2019-05-05T21:18:15.994Z,51.64
2019-05-05T21:20:43.485Z,51.85
2019-05-05T21:23:15.692Z,51.96
2019-05-05T21:28:35.484Z,51.58
2019-05-05T21:31:04.832Z,51.65
2019-05-05T21:36:05.094Z,51.96
2019-05-05T21:38:32.617Z,51.97
2019-05-05T21:41:01.338Z,52.08
2019-05-05T21:43:28.995Z,52.09
2019-05-05T21:45:57.134Z,52.14
2019-05-05T21:48:24.836Z,52.55
2019-05-05T21:50:54.021Z,52.91
2019-05-05T21:53:25.631Z,53.02
2019-05-05T21:55:55.220Z,52.91
2019-05-05T21:58:26.637Z,52.88
2019-05-05T22:00:56.449Z,52.84
2019-05-05T22:03:30.933Z,53.08
2019-05-05T22:06:03.542Z,53.51
2019-05-05T22:08:28.963Z,53.55
2019-05-05T22:10:56.414Z,53.40
2019-05-05T22:13:23.931Z,53.55
2019-05-05T22:15:51.391Z,53.98
2019-05-05T22:18:18.842Z,54.39
2019-05-05T22:20:46.306Z,54.46
2019-05-05T22:23:14.511Z,54.32
2019-05-05T22:25:43.668Z,54.08
2019-05-05T22:28:09.065Z,53.99
2019-05-05T22:30:36.512Z,53.78
2019-05-05T22:33:05.974Z,53.80
2019-05-05T22:35:31.520Z,53.89
2019-05-05T22:37:58.989Z,53.96
2019-05-05T22:40:26.562Z,54.13
2019-05-05T22:42:54.687Z,54.21
2019-05-05T22:45:23.610Z,54.27
2019-05-05T22:47:49.154Z,54.29
2019-05-05T22:50:16.609Z,54.61
2019-05-05T22:52:44.705Z,54.69
2019-05-05T22:55:13.805Z,54.79
2019-05-05T22:57:39.244Z,54.99
2019-05-05T23:00:06.745Z,55.03
2019-05-05T23:02:35.077Z,55.00
2019-05-05T23:05:04.087Z,55.14
2019-05-05T23:07:30.626Z,55.35
2019-05-05T23:09:58.101Z,55.59
2019-05-05T23:12:25.604Z,55.83
2019-05-05T23:14:54.548Z,55.82
2019-05-05T23:17:26.441Z,55.80
2019-05-05T23:19:58.044Z,55.55
2019-05-05T23:25:18.590Z,52.91
2019-05-05T23:27:47.526Z,52.94
2019-05-05T23:30:15.987Z,53.16
2019-05-05T23:32:43.867Z,53.27
2019-05-05T23:35:10.003Z,53.19
2019-05-05T23:37:37.539Z,53.20
2019-05-05T23:40:04.986Z,52.98
2019-05-05T23:42:33.699Z,52.93
2019-05-05T23:45:00.095Z,52.56
2019-05-05T23:47:27.541Z,52.38
2019-05-05T23:49:55.005Z,52.21
2019-05-05T23:52:24.016Z,52.27
2019-05-05T23:54:50.153Z,52.05
2019-05-05T23:57:17.810Z,52.00
2019-05-05T23:59:45.245Z,51.94
